sensor_id;sensor_type;location;lat;lon;timestamp;pressure;altitude;pressure_sealevel;temperature;humidity
53300;BME280;39187;48.476;8.310;2023-08-20T00:00:16;91862.06;;;22.15;100.00
53300;BME280;39187;48.476;8.310;2023-08-20T00:02:43;91859.88;;;21.99;100.00
53300;BME280;39187;48.476;8.310;2023-08-20T00:05:09;91859.28;;;22.10;100.00
53300;BME280;39187;48.476;8.310;2023-08-20T00:07:35;91860.16;;;22.01;100.00
53300;BME280;39187;48.476;8.310;2023-08-20T00:10:02;91861.16;;;21.89;100.00
53300;BME280;39187;48.476;8.310;2023-08-20T00:12:30;91861.63;;;22.02;100.00
53300;BME280;39187;48.476;8.310;2023-08-20T00:17:37;91857.78;;;22.09;99.80
53300;BME280;39187;48.476;8.310;2023-08-20T00:20:04;91853.88;;;21.95;100.00
53300;BME280;39187;48.476;8.310;2023-08-20T00:22:41;91861.81;;;21.98;100.00
53300;BME280;39187;48.476;8.310;2023-08-20T00:25:13;91864.31;;;22.02;100.00
53300;BME280;39187;48.476;8.310;2023-08-20T00:27:40;91864.63;;;22.04;100.00
53300;BME280;39187;48.476;8.310;2023-08-20T00:30:07;91871.06;;;21.92;100.00
53300;BME280;39187;48.476;8.310;2023-08-20T00:32:34;91863.94;;;21.80;100.00
53300;BME280;39187;48.476;8.310;2023-08-20T00:34:59;91870.31;;;21.91;100.00
53300;BME280;39187;48.476;8.310;2023-08-20T00:37:25;91868.91;;;21.81;100.00
53300;BME280;39187;48.476;8.310;2023-08-20T00:39:51;91870.22;;;21.86;100.00
53300;BME280;39187;48.476;8.310;2023-08-20T00:42:16;91868.53;;;21.74;100.00
53300;BME280;39187;48.476;8.310;2023-08-20T00:44:42;91867.97;;;21.70;100.00
53300;BME280;39187;48.476;8.310;2023-08-20T00:47:12;91870.88;;;21.66;100.00
53300;BME280;39187;48.476;8.310;2023-08-20T00:49:39;91870.97;;;21.72;99.93
53300;BME280;39187;48.476;8.310;2023-08-20T00:52:05;91874.34;;;21.81;99.48
53300;BME280;39187;48.476;8.310;2023-08-20T00:54:32;91868.53;;;21.88;98.76
53300;BME280;39187;48.476;8.310;2023-08-20T00:56:59;91870.69;;;21.70;100.00
53300;BME280;39187;48.476;8.310;2023-08-20T00:59:25;91872.91;;;21.71;100.00
53300;BME280;39187;48.476;8.310;2023-08-20T01:01:51;91875.06;;;21.67;100.00
53300;BME280;39187;48.476;8.310;2023-08-20T01:04:16;91871.13;;;21.83;100.00
53300;BME280;39187;48.476;8.310;2023-08-20T01:12:11;91869.81;;;21.64;100.00
53300;BME280;39187;48.476;8.310;2023-08-20T01:14:38;91872.25;;;21.47;100.00
53300;BME280;39187;48.476;8.310;2023-08-20T01:17:04;91870.97;;;21.57;100.00
53300;BME280;39187;48.476;8.310;2023-08-20T01:19:30;91870.09;;;21.51;100.00
53300;BME280;39187;48.476;8.310;2023-08-20T01:29:58;91863.28;;;21.41;100.00
53300;BME280;39187;48.476;8.310;2023-08-20T01:32:25;91860.31;;;21.53;100.00
53300;BME280;39187;48.476;8.310;2023-08-20T01:34:52;91862.84;;;21.86;100.00
53300;BME280;39187;48.476;8.310;2023-08-20T01:37:19;91868.53;;;21.59;100.00
53300;BME280;39187;48.476;8.310;2023-08-20T01:39:44;91864.69;;;21.66;100.00
53300;BME280;39187;48.476;8.310;2023-08-20T01:42:10;91864.00;;;21.27;100.00
53300;BME280;39187;48.476;8.310;2023-08-20T01:44:36;91864.16;;;21.62;100.00
53300;BME280;39187;48.476;8.310;2023-08-20T01:47:01;91868.03;;;21.46;100.00
53300;BME280;39187;48.476;8.310;2023-08-20T01:49:27;91865.56;;;21.57;100.00
53300;BME280;39187;48.476;8.310;2023-08-20T01:51:52;91868.88;;;21.52;100.00
53300;BME280;39187;48.476;8.310;2023-08-20T01:54:18;91872.38;;;21.67;100.00
53300;BME280;39187;48.476;8.310;2023-08-20T01:56:43;91868.03;;;21.46;100.00
53300;BME280;39187;48.476;8.310;2023-08-20T01:59:09;91874.97;;;21.62;100.00
53300;BME280;39187;48.476;8.310;2023-08-20T02:01:34;91877.88;;;21.73;100.00
53300;BME280;39187;48.476;8.310;2023-08-20T02:04:01;91879.19;;;21.77;100.00
53300;BME280;39187;48.476;8.310;2023-08-20T02:06:26;91881.53;;;21.70;100.00
53300;BME280;39187;48.476;8.310;2023-08-20T02:08:52;91894.97;;;21.79;100.00
53300;BME280;39187;48.476;8.310;2023-08-20T02:11:17;91886.09;;;21.78;100.00
53300;BME280;39187;48.476;8.310;2023-08-20T02:13:43;91893.56;;;21.83;100.00
53300;BME280;39187;48.476;8.310;2023-08-20T02:16:08;91887.31;;;21.92;100.00
53300;BME280;39187;48.476;8.310;2023-08-20T02:18:34;91887.72;;;21.99;100.00
53300;BME280;39187;48.476;8.310;2023-08-20T02:20:59;91889.22;;;22.01;100.00
53300;BME280;39187;48.476;8.310;2023-08-20T02:23:25;91894.06;;;21.96;100.00
53300;BME280;39187;48.476;8.310;2023-08-20T02:25:51;91884.06;;;22.03;100.00
53300;BME280;39187;48.476;8.310;2023-08-20T02:28:17;91886.69;;;21.97;100.00
53300;BME280;39187;48.476;8.310;2023-08-20T02:30:46;91882.75;;;21.98;99.93
53300;BME280;39187;48.476;8.310;2023-08-20T02:33:12;91883.69;;;21.95;99.59
53300;BME280;39187;48.476;8.310;2023-08-20T02:35:38;91877.88;;;22.02;98.71
53300;BME280;39187;48.476;8.310;2023-08-20T02:38:05;91877.41;;;22.04;98.29
53300;BME280;39187;48.476;8.310;2023-08-20T02:40:31;91885.06;;;21.61;96.23
53300;BME280;39187;48.476;8.310;2023-08-20T02:42:57;91881.84;;;21.33;96.93
53300;BME280;39187;48.476;8.310;2023-08-20T02:45:22;91879.19;;;21.63;95.72
53300;BME280;39187;48.476;8.310;2023-08-20T02:47:48;91870.88;;;21.66;95.86
53300;BME280;39187;48.476;8.310;2023-08-20T02:50:15;91871.91;;;21.69;96.81
53300;BME280;39187;48.476;8.310;2023-08-20T02:52:42;91879.38;;;21.74;96.99
53300;BME280;39187;48.476;8.310;2023-08-20T02:55:08;91867.03;;;21.87;95.83
53300;BME280;39187;48.476;8.310;2023-08-20T02:57:33;91873.66;;;21.72;96.66
53300;BME280;39187;48.476;8.310;2023-08-20T02:59:59;91857.88;;;21.85;96.22
53300;BME280;39187;48.476;8.310;2023-08-20T03:02:25;91865.09;;;21.88;96.03
53300;BME280;39187;48.476;8.310;2023-08-20T03:04:50;91855.75;;;21.89;96.58
53300;BME280;39187;48.476;8.310;2023-08-20T03:07:16;91847.03;;;21.85;96.93
53300;BME280;39187;48.476;8.310;2023-08-20T03:09:41;91847.22;;;21.81;97.10
53300;BME280;39187;48.476;8.310;2023-08-20T03:12:07;91840.22;;;21.75;97.91
53300;BME280;39187;48.476;8.310;2023-08-20T03:14:32;91843.13;;;21.42;100.00
53300;BME280;39187;48.476;8.310;2023-08-20T03:16:58;91838.53;;;21.48;99.96
53300;BME280;39187;48.476;8.310;2023-08-20T03:19:23;91828.38;;;21.43;100.00
53300;BME280;39187;48.476;8.310;2023-08-20T03:21:49;91827.06;;;21.14;100.00
53300;BME280;39187;48.476;8.310;2023-08-20T03:24:14;91826.28;;;21.23;100.00
53300;BME280;39187;48.476;8.310;2023-08-20T03:26:40;91831.50;;;21.27;100.00
53300;BME280;39187;48.476;8.310;2023-08-20T03:29:05;91833.94;;;21.25;100.00
53300;BME280;39187;48.476;8.310;2023-08-20T03:31:31;91833.34;;;21.06;100.00
53300;BME280;39187;48.476;8.310;2023-08-20T03:33:56;91839.19;;;21.04;100.00
53300;BME280;39187;48.476;8.310;2023-08-20T03:36:22;91847.22;;;21.13;100.00
53300;BME280;39187;48.476;8.310;2023-08-20T03:38:47;91843.31;;;21.14;100.00
53300;BME280;39187;48.476;8.310;2023-08-20T03:41:14;91842.47;;;21.08;100.00
53300;BME280;39187;48.476;8.310;2023-08-20T03:43:39;91839.84;;;21.14;100.00
53300;BME280;39187;48.476;8.310;2023-08-20T03:46:05;91846.75;;;21.39;100.00
53300;BME280;39187;48.476;8.310;2023-08-20T03:48:30;91848.53;;;21.42;100.00
53300;BME280;39187;48.476;8.310;2023-08-20T03:50:56;91858.41;;;21.45;100.00
53300;BME280;39187;48.476;8.310;2023-08-20T03:53:21;91852.44;;;21.41;100.00
53300;BME280;39187;48.476;8.310;2023-08-20T03:55:50;91842.81;;;21.25;100.00
53300;BME280;39187;48.476;8.310;2023-08-20T03:58:16;91847.75;;;21.27;100.00
53300;BME280;39187;48.476;8.310;2023-08-20T04:00:43;91846.91;;;21.20;100.00
53300;BME280;39187;48.476;8.310;2023-08-20T04:03:09;91855.53;;;21.10;100.00
53300;BME280;39187;48.476;8.310;2023-08-20T04:05:37;91855.16;;;21.02;100.00
53300;BME280;39187;48.476;8.310;2023-08-20T04:08:04;91850.78;;;21.05;100.00
53300;BME280;39187;48.476;8.310;2023-08-20T04:10:30;91856.94;;;21.05;100.00
53300;BME280;39187;48.476;8.310;2023-08-20T04:12:56;91857.31;;;21.13;100.00
53300;BME280;39187;48.476;8.310;2023-08-20T04:15:21;91868.09;;;21.22;100.00
53300;BME280;39187;48.476;8.310;2023-08-20T04:17:47;91864.22;;;21.14;100.00
53300;BME280;39187;48.476;8.310;2023-08-20T04:20:14;91863.47;;;20.99;100.00
53300;BME280;39187;48.476;8.310;2023-08-20T04:22:40;91868.56;;;20.97;100.00
53300;BME280;39187;48.476;8.310;2023-08-20T04:25:06;91863.38;;;21.08;100.00
53300;BME280;39187;48.476;8.310;2023-08-20T04:27:32;91867.72;;;20.91;100.00
53300;BME280;39187;48.476;8.310;2023-08-20T04:29:58;91873.94;;;21.06;100.00
53300;BME280;39187;48.476;8.310;2023-08-20T04:32:23;91864.53;;;21.16;100.00
53300;BME280;39187;48.476;8.310;2023-08-20T04:34:49;91869.25;;;21.30;100.00
53300;BME280;39187;48.476;8.310;2023-08-20T04:37:18;91869.25;;;21.30;100.00
53300;BME280;39187;48.476;8.310;2023-08-20T04:39:44;91873.53;;;21.22;100.00
53300;BME280;39187;48.476;8.310;2023-08-20T04:42:09;91879.44;;;21.35;100.00
53300;BME280;39187;48.476;8.310;2023-08-20T04:44:35;91869.44;;;21.41;100.00
53300;BME280;39187;48.476;8.310;2023-08-20T04:47:00;91869.59;;;21.23;100.00
53300;BME280;39187;48.476;8.310;2023-08-20T04:49:26;91863.19;;;21.35;100.00
53300;BME280;39187;48.476;8.310;2023-08-20T04:51:54;91868.53;;;21.44;100.00
53300;BME280;39187;48.476;8.310;2023-08-20T04:54:19;91869.75;;;21.73;100.00
53300;BME280;39187;48.476;8.310;2023-08-20T04:56:45;91867.22;;;21.54;100.00
53300;BME280;39187;48.476;8.310;2023-08-20T04:59:10;91869.09;;;21.92;100.00
53300;BME280;39187;48.476;8.310;2023-08-20T05:01:38;91873.03;;;22.06;100.00
53300;BME280;39187;48.476;8.310;2023-08-20T05:04:03;91868.13;;;22.39;100.00
53300;BME280;39187;48.476;8.310;2023-08-20T05:06:29;91871.19;;;22.82;100.00
53300;BME280;39187;48.476;8.310;2023-08-20T05:08:55;91870.50;;;23.07;100.00
53300;BME280;39187;48.476;8.310;2023-08-20T05:11:20;91867.91;;;23.39;98.46
53300;BME280;39187;48.476;8.310;2023-08-20T05:13:47;91873.34;;;23.39;97.63
53300;BME280;39187;48.476;8.310;2023-08-20T05:16:13;91873.34;;;23.59;96.66
53300;BME280;39187;48.476;8.310;2023-08-20T05:18:38;91870.50;;;24.00;94.48
53300;BME280;39187;48.476;8.310;2023-08-20T05:21:04;91874.28;;;24.39;91.85
53300;BME280;39187;48.476;8.310;2023-08-20T05:23:29;91872.78;;;24.69;89.68
53300;BME280;39187;48.476;8.310;2023-08-20T05:25:55;91874.81;;;24.86;88.02
53300;BME280;39187;48.476;8.310;2023-08-20T05:28:20;91874.28;;;25.24;84.94
53300;BME280;39187;48.476;8.310;2023-08-20T05:30:56;91874.13;;;25.50;82.07
53300;BME280;39187;48.476;8.310;2023-08-20T05:33:22;91880.19;;;25.82;81.20
53300;BME280;39187;48.476;8.310;2023-08-20T05:35:49;91879.44;;;25.87;79.90
53300;BME280;39187;48.476;8.310;2023-08-20T05:38:15;91874.75;;;25.99;78.44
53300;BME280;39187;48.476;8.310;2023-08-20T05:40:40;91872.25;;;25.89;79.25
53300;BME280;39187;48.476;8.310;2023-08-20T05:43:06;91874.28;;;26.11;77.98
53300;BME280;39187;48.476;8.310;2023-08-20T05:45:32;91882.44;;;26.00;79.88
53300;BME280;39187;48.476;8.310;2023-08-20T05:47:57;91877.72;;;25.78;82.28
53300;BME280;39187;48.476;8.310;2023-08-20T05:50:22;91872.72;;;25.60;82.86
53300;BME280;39187;48.476;8.310;2023-08-20T05:52:48;91878.16;;;25.60;82.85
53300;BME280;39187;48.476;8.310;2023-08-20T05:55:14;91882.13;;;25.65;81.71
53300;BME280;39187;48.476;8.310;2023-08-20T05:57:40;91892.25;;;25.53;82.20
53300;BME280;39187;48.476;8.310;2023-08-20T06:00:08;91892.94;;;25.42;82.60
53300;BME280;39187;48.476;8.310;2023-08-20T06:02:33;91890.94;;;25.37;82.85
53300;BME280;39187;48.476;8.310;2023-08-20T06:04:59;91901.50;;;25.13;84.75
53300;BME280;39187;48.476;8.310;2023-08-20T06:07:24;91910.09;;;25.00;86.87
53300;BME280;39187;48.476;8.310;2023-08-20T06:09:50;91910.13;;;25.06;86.37
53300;BME280;39187;48.476;8.310;2023-08-20T06:12:16;91916.78;;;24.99;86.49
53300;BME280;39187;48.476;8.310;2023-08-20T06:14:42;91912.31;;;24.96;86.35
53300;BME280;39187;48.476;8.310;2023-08-20T06:17:08;91914.94;;;24.85;87.30
53300;BME280;39187;48.476;8.310;2023-08-20T06:19:33;91922.34;;;24.85;86.60
53300;BME280;39187;48.476;8.310;2023-08-20T06:21:59;91923.09;;;24.85;86.75
53300;BME280;39187;48.476;8.310;2023-08-20T06:24:25;91914.72;;;24.89;87.13
53300;BME280;39187;48.476;8.310;2023-08-20T06:26:51;91920.59;;;25.24;86.57
53300;BME280;39187;48.476;8.310;2023-08-20T06:29:17;91922.84;;;25.79;85.31
53300;BME280;39187;48.476;8.310;2023-08-20T06:31:43;91924.16;;;26.40;81.41
53300;BME280;39187;48.476;8.310;2023-08-20T06:34:09;91921.91;;;27.05;76.12
53300;BME280;39187;48.476;8.310;2023-08-20T06:36:35;91922.63;;;27.17;74.13
53300;BME280;39187;48.476;8.310;2023-08-20T06:39:01;91912.69;;;27.08;74.34
53300;BME280;39187;48.476;8.310;2023-08-20T06:41:27;91920.66;;;27.11;75.28
53300;BME280;39187;48.476;8.310;2023-08-20T06:43:52;91920.53;;;27.50;73.58
53300;BME280;39187;48.476;8.310;2023-08-20T06:46:19;91917.97;;;28.21;67.64
53300;BME280;39187;48.476;8.310;2023-08-20T06:48:45;91916.13;;;28.65;65.31
53300;BME280;39187;48.476;8.310;2023-08-20T06:51:14;91916.75;;;29.36;57.53
53300;BME280;39187;48.476;8.310;2023-08-20T06:53:43;91922.56;;;29.70;53.39
53300;BME280;39187;48.476;8.310;2023-08-20T06:56:09;91910.50;;;30.16;51.25
53300;BME280;39187;48.476;8.310;2023-08-20T06:58:35;91916.53;;;30.15;51.39
53300;BME280;39187;48.476;8.310;2023-08-20T07:01:01;91915.56;;;30.31;50.55
53300;BME280;39187;48.476;8.310;2023-08-20T07:03:50;91920.81;;;30.80;48.88
53300;BME280;39187;48.476;8.310;2023-08-20T07:06:16;91923.75;;;31.14;48.15
53300;BME280;39187;48.476;8.310;2023-08-20T07:08:44;91923.28;;;30.96;48.28
53300;BME280;39187;48.476;8.310;2023-08-20T07:11:09;91926.53;;;31.40;47.76
53300;BME280;39187;48.476;8.310;2023-08-20T07:13:35;91935.97;;;31.71;47.55
53300;BME280;39187;48.476;8.310;2023-08-20T07:16:01;91931.94;;;31.72;47.28
53300;BME280;39187;48.476;8.310;2023-08-20T07:18:27;91929.66;;;32.10;46.98
53300;BME280;39187;48.476;8.310;2023-08-20T07:20:52;91933.16;;;32.57;45.16
53300;BME280;39187;48.476;8.310;2023-08-20T07:23:18;91930.16;;;32.89;43.20
53300;BME280;39187;48.476;8.310;2023-08-20T07:25:43;91925.78;;;32.73;42.60
53300;BME280;39187;48.476;8.310;2023-08-20T07:28:10;91932.63;;;32.80;42.33
53300;BME280;39187;48.476;8.310;2023-08-20T07:30:36;91942.19;;;32.99;41.54
53300;BME280;39187;48.476;8.310;2023-08-20T07:33:02;91940.03;;;32.85;42.74
53300;BME280;39187;48.476;8.310;2023-08-20T07:35:29;91949.75;;;32.65;42.41
53300;BME280;39187;48.476;8.310;2023-08-20T07:37:54;91946.34;;;32.93;41.50
53300;BME280;39187;48.476;8.310;2023-08-20T07:40:20;91948.72;;;33.59;40.23
53300;BME280;39187;48.476;8.310;2023-08-20T07:42:46;91957.09;;;34.02;39.86
53300;BME280;39187;48.476;8.310;2023-08-20T07:45:11;91948.63;;;34.08;39.85
53300;BME280;39187;48.476;8.310;2023-08-20T07:47:38;91948.47;;;34.49;38.57
53300;BME280;39187;48.476;8.310;2023-08-20T07:50:04;91948.72;;;33.59;38.45
53300;BME280;39187;48.476;8.310;2023-08-20T07:52:31;91947.22;;;33.78;38.54
53300;BME280;39187;48.476;8.310;2023-08-20T07:54:57;91944.44;;;33.78;37.21
53300;BME280;39187;48.476;8.310;2023-08-20T07:57:22;91947.00;;;33.76;37.23
53300;BME280;39187;48.476;8.310;2023-08-20T07:59:49;91952.00;;;33.29;35.38
53300;BME280;39187;48.476;8.310;2023-08-20T08:02:15;91951.13;;;33.34;36.36
53300;BME280;39187;48.476;8.310;2023-08-20T08:04:41;91949.69;;;33.97;35.77
53300;BME280;39187;48.476;8.310;2023-08-20T08:07:08;91950.97;;;32.56;36.13
53300;BME280;39187;48.476;8.310;2023-08-20T08:09:33;91950.84;;;32.02;36.60
53300;BME280;39187;48.476;8.310;2023-08-20T08:12:00;91957.16;;;32.36;37.22
53300;BME280;39187;48.476;8.310;2023-08-20T08:14:25;91952.22;;;32.21;35.61
53300;BME280;39187;48.476;8.310;2023-08-20T08:16:51;91955.84;;;32.50;36.96
53300;BME280;39187;48.476;8.310;2023-08-20T08:19:17;91959.97;;;32.57;38.29
53300;BME280;39187;48.476;8.310;2023-08-20T08:21:44;91959.22;;;32.70;37.17
53300;BME280;39187;48.476;8.310;2023-08-20T08:24:10;91955.84;;;32.84;37.95
53300;BME280;39187;48.476;8.310;2023-08-20T08:26:36;91956.16;;;33.43;36.54
53300;BME280;39187;48.476;8.310;2023-08-20T08:29:03;91958.69;;;33.90;35.41
53300;BME280;39187;48.476;8.310;2023-08-20T08:31:29;91957.06;;;33.66;36.05
53300;BME280;39187;48.476;8.310;2023-08-20T08:33:55;91969.31;;;32.88;36.89
53300;BME280;39187;48.476;8.310;2023-08-20T08:36:20;91965.28;;;32.55;36.79
53300;BME280;39187;48.476;8.310;2023-08-20T08:38:46;91968.56;;;32.06;37.99
53300;BME280;39187;48.476;8.310;2023-08-20T08:41:12;91966.81;;;32.97;37.13
53300;BME280;39187;48.476;8.310;2023-08-20T08:43:39;91982.53;;;32.69;37.40
53300;BME280;39187;48.476;8.310;2023-08-20T08:46:12;91983.28;;;32.22;40.69
53300;BME280;39187;48.476;8.310;2023-08-20T08:48:42;91986.25;;;32.58;39.52
53300;BME280;39187;48.476;8.310;2023-08-20T08:51:08;91970.47;;;33.34;38.16
53300;BME280;39187;48.476;8.310;2023-08-20T08:53:35;91972.31;;;33.18;35.83
53300;BME280;39187;48.476;8.310;2023-08-20T08:56:02;91965.72;;;33.42;34.35
53300;BME280;39187;48.476;8.310;2023-08-20T08:58:28;91977.38;;;32.52;36.23
53300;BME280;39187;48.476;8.310;2023-08-20T09:00:54;91978.63;;;32.85;36.36
53300;BME280;39187;48.476;8.310;2023-08-20T09:03:20;91973.16;;;33.55;35.66
53300;BME280;39187;48.476;8.310;2023-08-20T09:08:22;91966.03;;;33.59;34.87
53300;BME280;39187;48.476;8.310;2023-08-20T09:10:50;91971.78;;;33.69;35.23
53300;BME280;39187;48.476;8.310;2023-08-20T09:13:17;91966.19;;;33.82;33.86
53300;BME280;39187;48.476;8.310;2023-08-20T09:15:43;91968.41;;;33.84;34.30
53300;BME280;39187;48.476;8.310;2023-08-20T09:18:11;91975.22;;;33.62;35.07
53300;BME280;39187;48.476;8.310;2023-08-20T09:20:37;91969.88;;;33.56;35.70
53300;BME280;39187;48.476;8.310;2023-08-20T09:23:04;91967.78;;;33.49;36.48
53300;BME280;39187;48.476;8.310;2023-08-20T09:25:29;91973.00;;;32.70;40.13
53300;BME280;39187;48.476;8.310;2023-08-20T09:27:55;91969.25;;;32.33;40.02
53300;BME280;39187;48.476;8.310;2023-08-20T09:30:20;91973.91;;;32.38;40.30
53300;BME280;39187;48.476;8.310;2023-08-20T09:33:03;91974.94;;;32.82;40.11
53300;BME280;39187;48.476;8.310;2023-08-20T09:35:28;91975.84;;;32.64;39.96
53300;BME280;39187;48.476;8.310;2023-08-20T09:37:59;91987.00;;;31.98;39.89
53300;BME280;39187;48.476;8.310;2023-08-20T09:40:26;91990.06;;;31.55;40.99
53300;BME280;39187;48.476;8.310;2023-08-20T09:42:53;91984.63;;;31.23;40.82
53300;BME280;39187;48.476;8.310;2023-08-20T09:45:20;91984.81;;;30.43;42.41
53300;BME280;39187;48.476;8.310;2023-08-20T09:47:48;91988.91;;;31.64;41.18
53300;BME280;39187;48.476;8.310;2023-08-20T09:50:17;91990.06;;;31.55;41.00
53300;BME280;39187;48.476;8.310;2023-08-20T09:52:51;91986.88;;;31.64;41.31
53300;BME280;39187;48.476;8.310;2023-08-20T09:55:30;91994.53;;;31.84;42.61
53300;BME280;39187;48.476;8.310;2023-08-20T09:57:58;91984.59;;;30.59;42.61
53300;BME280;39187;48.476;8.310;2023-08-20T10:00:25;91993.16;;;31.20;42.62
53300;BME280;39187;48.476;8.310;2023-08-20T10:02:51;91998.09;;;31.53;41.72
53300;BME280;39187;48.476;8.310;2023-08-20T10:05:17;91996.81;;;31.54;42.00
53300;BME280;39187;48.476;8.310;2023-08-20T10:07:46;92002.31;;;31.41;42.70
53300;BME280;39187;48.476;8.310;2023-08-20T10:10:12;91993.63;;;31.24;43.08
53300;BME280;39187;48.476;8.310;2023-08-20T10:12:40;91994.88;;;31.23;41.94
53300;BME280;39187;48.476;8.310;2023-08-20T10:15:09;91993.63;;;31.24;43.34
53300;BME280;39187;48.476;8.310;2023-08-20T10:17:37;91984.41;;;31.34;42.93
53300;BME280;39187;48.476;8.310;2023-08-20T10:20:04;91992.28;;;31.83;41.57
53300;BME280;39187;48.476;8.310;2023-08-20T10:22:36;91992.22;;;31.62;41.68
53300;BME280;39187;48.476;8.310;2023-08-20T10:25:06;91991.69;;;31.19;43.42
53300;BME280;39187;48.476;8.310;2023-08-20T10:27:34;91984.66;;;30.73;42.06
53300;BME280;39187;48.476;8.310;2023-08-20T10:30:01;91989.38;;;30.91;41.97
53300;BME280;39187;48.476;8.310;2023-08-20T10:32:47;91990.63;;;30.90;43.46
53300;BME280;39187;48.476;8.310;2023-08-20T10:35:20;91988.94;;;31.32;42.62
53300;BME280;39187;48.476;8.310;2023-08-20T10:38:07;91992.31;;;30.93;45.01
53300;BME280;39187;48.476;8.310;2023-08-20T10:40:53;91986.94;;;31.32;42.13
53300;BME280;39187;48.476;8.310;2023-08-20T10:48:32;91988.44;;;30.70;44.10
53300;BME280;39187;48.476;8.310;2023-08-20T10:51:28;91985.63;;;31.07;42.83
53300;BME280;39187;48.476;8.310;2023-08-20T10:56:42;91989.06;;;29.58;45.69
53300;BME280;39187;48.476;8.310;2023-08-20T10:59:09;91982.72;;;29.93;44.79
53300;BME280;39187;48.476;8.310;2023-08-20T11:01:38;91989.56;;;29.80;45.62
53300;BME280;39187;48.476;8.310;2023-08-20T11:04:04;91986.97;;;29.69;46.71
53300;BME280;39187;48.476;8.310;2023-08-20T11:06:33;91984.44;;;29.47;46.22
53300;BME280;39187;48.476;8.310;2023-08-20T11:08:59;91988.81;;;29.37;47.47
53300;BME280;39187;48.476;8.310;2023-08-20T11:11:25;91986.25;;;29.44;46.46
53300;BME280;39187;48.476;8.310;2023-08-20T11:13:51;91987.31;;;29.60;46.60
53300;BME280;39187;48.476;8.310;2023-08-20T11:16:17;91982.53;;;29.12;48.15
53300;BME280;39187;48.476;8.310;2023-08-20T11:18:43;91977.63;;;29.05;46.97
53300;BME280;39187;48.476;8.310;2023-08-20T11:21:09;91982.81;;;28.79;48.71
53300;BME280;39187;48.476;8.310;2023-08-20T11:23:35;91981.59;;;29.04;48.05
53300;BME280;39187;48.476;8.310;2023-08-20T11:26:01;91984.06;;;29.07;48.41
53300;BME280;39187;48.476;8.310;2023-08-20T11:28:28;91978.59;;;28.72;48.73
53300;BME280;39187;48.476;8.310;2023-08-20T11:30:54;91982.44;;;29.23;48.82
53300;BME280;39187;48.476;8.310;2023-08-20T11:33:22;91983.66;;;29.52;48.72
53300;BME280;39187;48.476;8.310;2023-08-20T11:35:48;91989.06;;;29.58;48.68
53300;BME280;39187;48.476;8.310;2023-08-20T11:38:14;91986.94;;;29.21;48.50
53300;BME280;39187;48.476;8.310;2023-08-20T11:40:39;91976.59;;;29.38;47.88
53300;BME280;39187;48.476;8.310;2023-08-20T11:43:05;91974.63;;;29.57;47.23
53300;BME280;39187;48.476;8.310;2023-08-20T11:45:30;91971.25;;;29.45;47.57
53300;BME280;39187;48.476;8.310;2023-08-20T11:47:57;91972.78;;;29.65;48.67
53300;BME280;39187;48.476;8.310;2023-08-20T11:50:23;91974.81;;;29.83;49.36
53300;BME280;39187;48.476;8.310;2023-08-20T11:52:52;91976.13;;;30.01;50.11
53300;BME280;39187;48.476;8.310;2023-08-20T11:55:22;91973.38;;;30.01;49.18
53300;BME280;39187;48.476;8.310;2023-08-20T11:57:54;91976.22;;;30.14;48.30
53300;BME280;39187;48.476;8.310;2023-08-20T12:00:25;91964.84;;;29.62;48.90
53300;BME280;39187;48.476;8.310;2023-08-20T12:02:55;91978.00;;;29.15;49.45
53300;BME280;39187;48.476;8.310;2023-08-20T12:05:30;91975.88;;;29.56;49.26
53300;BME280;39187;48.476;8.310;2023-08-20T12:08:01;91971.53;;;29.42;50.75
53300;BME280;39187;48.476;8.310;2023-08-20T12:10:29;91975.09;;;28.77;51.72
53300;BME280;39187;48.476;8.310;2023-08-20T12:12:56;91967.94;;;28.63;52.26
53300;BME280;39187;48.476;8.310;2023-08-20T12:15:22;91962.38;;;28.80;52.37
53300;BME280;39187;48.476;8.310;2023-08-20T12:18:02;91964.59;;;29.11;52.23
53300;BME280;39187;48.476;8.310;2023-08-20T12:20:33;91978.28;;;29.41;53.28
53300;BME280;39187;48.476;8.310;2023-08-20T12:23:01;91977.53;;;29.40;52.42
53300;BME280;39187;48.476;8.310;2023-08-20T12:25:30;91972.19;;;29.24;50.84
53300;BME280;39187;48.476;8.310;2023-08-20T12:27:55;91970.72;;;29.23;51.76
53300;BME280;39187;48.476;8.310;2023-08-20T12:30:21;91972.22;;;29.48;51.77
53300;BME280;39187;48.476;8.310;2023-08-20T12:32:47;91974.56;;;29.63;50.73
53300;BME280;39187;48.476;8.310;2023-08-20T12:35:13;91975.63;;;29.05;50.78
53300;BME280;39187;48.476;8.310;2023-08-20T12:37:38;91970.66;;;29.28;50.32
53300;BME280;39187;48.476;8.310;2023-08-20T12:40:05;91966.03;;;28.88;51.06
53300;BME280;39187;48.476;8.310;2023-08-20T12:42:33;91968.53;;;29.16;51.05
53300;BME280;39187;48.476;8.310;2023-08-20T12:44:59;91964.28;;;28.55;53.96
53300;BME280;39187;48.476;8.310;2023-08-20T12:47:25;91967.16;;;28.33;53.44
53300;BME280;39187;48.476;8.310;2023-08-20T12:49:50;91964.88;;;28.78;53.50
53300;BME280;39187;48.476;8.310;2023-08-20T12:52:16;91954.94;;;29.04;53.19
53300;BME280;39187;48.476;8.310;2023-08-20T12:54:41;91958.00;;;29.20;53.33
53300;BME280;39187;48.476;8.310;2023-08-20T12:57:07;91958.00;;;28.95;52.77
53300;BME280;39187;48.476;8.310;2023-08-20T12:59:32;91958.25;;;28.97;53.42
53300;BME280;39187;48.476;8.310;2023-08-20T13:01:58;91955.03;;;28.93;53.60
53300;BME280;39187;48.476;8.310;2023-08-20T13:04:23;91954.72;;;29.27;52.51
53300;BME280;39187;48.476;8.310;2023-08-20T13:06:49;91954.63;;;29.08;53.46
53300;BME280;39187;48.476;8.310;2023-08-20T13:09:15;91956.75;;;28.96;54.55
53300;BME280;39187;48.476;8.310;2023-08-20T13:11:42;91950.59;;;29.15;55.35
53300;BME280;39187;48.476;8.310;2023-08-20T13:14:08;91956.63;;;29.37;53.69
53300;BME280;39187;48.476;8.310;2023-08-20T13:16:34;91959.03;;;29.46;53.64
53300;BME280;39187;48.476;8.310;2023-08-20T13:18:59;91956.22;;;29.52;52.85
53300;BME280;39187;48.476;8.310;2023-08-20T13:21:25;91952.44;;;29.55;52.46